createdAt,value
2023-03-22T00:02:30.545Z,10.97
2023-03-22T00:05:02.720Z,10.94
2023-03-22T00:07:34.603Z,10.97
2023-03-22T00:10:08.219Z,10.98
2023-03-22T00:12:40.120Z,10.97
2023-03-22T00:15:14.484Z,10.98
2023-03-22T00:17:46.533Z,10.99
2023-03-22T00:20:23.608Z,10.98
2023-03-22T00:22:55.791Z,10.99
2023-03-22T00:25:27.842Z,11.00
2023-03-22T00:27:59.738Z,10.98
2023-03-22T00:30:54.183Z,10.99
2023-03-22T00:33:26.093Z,10.96
2023-03-22T00:36:01.204Z,10.99
2023-03-22T00:38:42.564Z,11.01
2023-03-22T00:41:16.931Z,11.00
2023-03-22T00:43:50.737Z,10.98
2023-03-22T00:46:23.136Z,10.97
2023-03-22T00:48:54.716Z,10.98
2023-03-22T00:51:26.696Z,10.97
2023-03-22T00:53:58.998Z,10.95
2023-03-22T00:56:33.915Z,10.96
2023-03-22T00:59:12.135Z,10.95
2023-03-22T01:01:45.602Z,10.93
2023-03-22T01:04:17.997Z,10.97
2023-03-22T01:06:50.771Z,10.97
2023-03-22T01:09:24.107Z,10.97
2023-03-22T01:11:57.796Z,10.98
2023-03-22T01:14:31.917Z,10.96
2023-03-22T01:17:04.527Z,10.97
2023-03-22T01:19:40.649Z,10.99
2023-03-22T01:22:15.804Z,11.01
2023-03-22T01:24:49.964Z,10.99
2023-03-22T01:27:23.519Z,10.99
2023-03-22T01:29:56.013Z,11.02
2023-03-22T01:32:34.206Z,11.02
2023-03-22T01:35:11.165Z,11.00
2023-03-22T01:37:47.437Z,10.99
2023-03-22T01:40:24.932Z,10.99
2023-03-22T01:42:58.723Z,10.99
2023-03-22T01:45:43.108Z,10.98
2023-03-22T01:48:31.709Z,10.96
2023-03-22T01:51:15.318Z,10.99
2023-03-22T01:54:07.145Z,10.99
2023-03-22T01:56:43.157Z,11.00
2023-03-22T01:59:20.918Z,11.01
2023-03-22T02:02:14.875Z,11.01
2023-03-22T02:04:50.900Z,11.00
2023-03-22T02:07:27.127Z,11.02
2023-03-22T02:10:00.801Z,11.00
2023-03-22T02:12:51.092Z,10.99
2023-03-22T02:15:39.613Z,10.97
2023-03-22T02:18:52.550Z,10.96
2023-03-22T02:21:41.592Z,10.94
2023-03-22T02:24:47.513Z,10.90
2023-03-22T02:27:53.780Z,10.89
2023-03-22T02:30:52.530Z,10.87
2023-03-22T02:33:41.558Z,10.83
2023-03-22T02:36:30.870Z,10.82
2023-03-22T02:39:24.198Z,10.80
2023-03-22T02:42:12.097Z,10.80
2023-03-22T02:44:52.615Z,10.79
2023-03-22T02:47:31.453Z,10.79
2023-03-22T02:50:10.146Z,10.76
2023-03-22T02:52:46.658Z,10.76
2023-03-22T02:55:22.527Z,10.76
2023-03-22T02:57:59.129Z,10.73
2023-03-22T03:00:32.271Z,10.74
2023-03-22T03:03:11.578Z,10.74
2023-03-22T03:05:48.146Z,10.70
2023-03-22T03:08:21.800Z,10.67
2023-03-22T03:10:55.152Z,10.64
2023-03-22T03:13:27.189Z,10.64
2023-03-22T03:16:01.665Z,10.65
2023-03-22T03:18:45.793Z,10.63
2023-03-22T03:21:30.133Z,10.64
2023-03-22T03:24:13.786Z,10.62
2023-03-22T03:26:57.626Z,10.60
2023-03-22T03:29:39.848Z,10.59
2023-03-22T03:32:18.631Z,10.61
2023-03-22T03:34:57.424Z,10.60
2023-03-22T03:37:33.916Z,10.59
2023-03-22T03:40:11.425Z,10.59
2023-03-22T03:42:49.541Z,10.57
2023-03-22T03:45:23.284Z,10.58
2023-03-22T03:47:58.972Z,10.56
2023-03-22T03:50:31.275Z,10.59
2023-03-22T03:53:03.590Z,10.57
2023-03-22T03:55:37.622Z,10.60
2023-03-22T03:58:10.016Z,10.56
2023-03-22T04:00:42.173Z,10.57
2023-03-22T04:03:27.607Z,10.56
2023-03-22T04:06:19.804Z,10.56
2023-03-22T04:08:56.662Z,10.53
2023-03-22T04:11:30.854Z,10.54
2023-03-22T04:14:05.301Z,10.57
2023-03-22T04:16:37.276Z,10.57
2023-03-22T04:19:09.632Z,10.57
2023-03-22T04:21:41.967Z,10.55
2023-03-22T04:24:14.368Z,10.54
2023-03-22T04:26:47.579Z,10.51
2023-03-22T04:29:48.571Z,10.51
2023-03-22T04:32:56.333Z,10.49
2023-03-22T04:35:36.356Z,10.45
2023-03-22T04:38:09.658Z,10.47
2023-03-22T04:40:46.932Z,10.47
2023-03-22T04:43:25.828Z,10.37
2023-03-22T04:46:02.916Z,10.40
2023-03-22T04:48:42.742Z,10.41
2023-03-22T04:51:15.514Z,10.38
2023-03-22T04:53:55.812Z,10.41
2023-03-22T04:56:28.673Z,10.44
2023-03-22T04:59:01.533Z,10.43
2023-03-22T05:01:32.338Z,10.47
2023-03-22T05:04:13.499Z,10.49
2023-03-22T05:06:46.467Z,10.46
2023-03-22T05:09:25.234Z,10.46
2023-03-22T05:11:58.325Z,10.43
2023-03-22T05:14:56.645Z,10.37
2023-03-22T05:17:31.953Z,10.41
2023-03-22T05:20:09.278Z,10.46
2023-03-22T05:22:42.751Z,10.47
2023-03-22T05:25:16.121Z,10.47
2023-03-22T05:27:50.258Z,10.51
2023-03-22T05:30:41.690Z,10.51
2023-03-22T05:33:24.110Z,10.55
2023-03-22T05:35:58.554Z,10.56
2023-03-22T05:38:32.335Z,10.55
2023-03-22T05:41:05.574Z,10.55
2023-03-22T05:43:38.917Z,10.38
2023-03-22T05:46:13.097Z,10.38
2023-03-22T05:48:58.383Z,10.38
2023-03-22T05:51:30.696Z,10.40
2023-03-22T05:54:03.318Z,10.41
2023-03-22T05:56:40.669Z,10.44
2023-03-22T05:59:12.569Z,10.46
2023-03-22T06:01:43.960Z,10.50
2023-03-22T06:04:25.590Z,10.55
2023-03-22T06:07:10.925Z,10.60
2023-03-22T06:09:52.670Z,10.61
2023-03-22T06:12:30.173Z,10.64
2023-03-22T06:15:13.036Z,10.64
2023-03-22T06:18:04.768Z,10.68
2023-03-22T06:20:41.860Z,10.59
2023-03-22T06:23:24.917Z,10.63
2023-03-22T06:25:56.860Z,10.56
2023-03-22T06:28:29.990Z,10.63
2023-03-22T06:31:09.306Z,10.69
2023-03-22T06:34:08.052Z,10.75
2023-03-22T06:36:45.668Z,10.83
2023-03-22T06:39:36.727Z,10.91
2023-03-22T06:42:08.744Z,10.87
2023-03-22T06:44:43.864Z,10.84
2023-03-22T06:47:21.951Z,10.86
2023-03-22T06:50:02.810Z,10.92
2023-03-22T06:52:54.354Z,10.93
2023-03-22T06:55:26.569Z,10.96
2023-03-22T06:58:04.839Z,10.98
2023-03-22T07:00:35.496Z,11.05
2023-03-22T07:03:07.787Z,11.00
2023-03-22T07:06:01.613Z,11.08
2023-03-22T07:08:37.052Z,10.98
2023-03-22T07:11:10.273Z,11.03
2023-03-22T07:13:42.612Z,11.10
2023-03-22T07:16:19.854Z,11.12
2023-03-22T07:18:57.109Z,11.18
2023-03-22T07:21:31.222Z,11.21
2023-03-22T07:24:06.695Z,11.25
2023-03-22T07:26:40.701Z,11.29
2023-03-22T07:29:13.181Z,11.36
2023-03-22T07:31:45.977Z,11.46
2023-03-22T07:34:34.342Z,11.54
2023-03-22T07:37:11.252Z,11.63
2023-03-22T07:39:43.197Z,11.67
2023-03-22T07:42:15.685Z,11.67
2023-03-22T07:44:49.836Z,11.70
2023-03-22T07:47:39.515Z,11.68
2023-03-22T07:50:33.625Z,11.60
2023-03-22T07:53:07.871Z,11.60
2023-03-22T07:55:42.188Z,11.69
2023-03-22T07:58:15.087Z,11.79
2023-03-22T08:00:49.694Z,11.92
2023-03-22T08:03:42.014Z,12.04
2023-03-22T08:06:25.394Z,12.15
2023-03-22T08:08:57.426Z,12.09
2023-03-22T08:11:31.310Z,12.17
2023-03-22T08:14:03.872Z,12.21
2023-03-22T08:16:38.412Z,12.14
2023-03-22T08:19:11.666Z,12.07
2023-03-22T08:21:43.614Z,12.05
2023-03-22T08:24:24.952Z,12.14
2023-03-22T08:27:05.923Z,12.19
2023-03-22T08:29:47.500Z,12.24
2023-03-22T08:32:20.431Z,12.33
2023-03-22T08:34:51.148Z,12.34
2023-03-22T08:37:23.051Z,12.35
2023-03-22T08:39:54.327Z,12.36
2023-03-22T08:42:33.251Z,12.42
2023-03-22T08:45:07.389Z,12.43
2023-03-22T08:47:41.372Z,12.49
2023-03-22T08:50:14.283Z,12.50
2023-03-22T08:52:53.903Z,12.50
2023-03-22T08:55:36.047Z,12.49
2023-03-22T08:58:14.683Z,12.41
2023-03-22T09:01:21.248Z,12.49
2023-03-22T09:03:58.515Z,12.59
2023-03-22T09:06:31.365Z,12.68
2023-03-22T09:09:02.115Z,12.69
2023-03-22T09:11:35.522Z,12.61
2023-03-22T09:14:07.457Z,12.59
2023-03-22T09:16:39.713Z,12.65
2023-03-22T09:19:12.261Z,12.67
2023-03-22T09:21:42.855Z,12.62
2023-03-22T09:24:20.877Z,12.64
2023-03-22T09:27:00.951Z,12.68
2023-03-22T09:29:33.254Z,12.61
2023-03-22T09:32:08.346Z,12.61
2023-03-22T09:34:41.935Z,12.72
2023-03-22T09:37:14.900Z,12.76
2023-03-22T09:39:54.220Z,12.75
2023-03-22T09:42:38.935Z,12.75
2023-03-22T09:45:17.695Z,12.89
2023-03-22T09:47:53.871Z,12.93
2023-03-22T09:50:27.991Z,13.06
2023-03-22T09:53:00.853Z,13.13
2023-03-22T09:55:37.455Z,13.17
2023-03-22T09:58:20.911Z,13.24
2023-03-22T10:00:57.904Z,13.39
2023-03-22T10:03:50.657Z,13.47
2023-03-22T10:06:25.018Z,13.47
2023-03-22T10:09:06.845Z,13.47
2023-03-22T10:11:46.246Z,13.57
2023-03-22T10:14:31.470Z,13.62
2023-03-22T10:17:07.588Z,13.57
2023-03-22T10:19:47.380Z,13.65
2023-03-22T10:22:25.200Z,13.69
2023-03-22T10:24:58.186Z,13.68
2023-03-22T10:27:32.601Z,13.76
2023-03-22T10:30:09.314Z,13.80
2023-03-22T10:32:57.232Z,13.84
2023-03-22T10:35:33.536Z,13.83
2023-03-22T10:38:10.597Z,13.80
2023-03-22T10:40:42.875Z,13.83
2023-03-22T10:43:22.284Z,13.85
2023-03-22T10:45:56.688Z,13.79
2023-03-22T10:48:33.430Z,13.83
2023-03-22T10:51:06.298Z,13.71
2023-03-22T10:53:38.790Z,13.85
2023-03-22T10:56:16.903Z,13.87
2023-03-22T10:58:49.977Z,13.93
2023-03-22T11:01:31.303Z,13.95
2023-03-22T11:04:10.558Z,13.94
2023-03-22T11:06:54.690Z,13.99
2023-03-22T11:09:27.868Z,14.00
2023-03-22T11:12:01.705Z,13.96
2023-03-22T11:14:36.942Z,14.05
2023-03-22T11:17:17.114Z,14.09
2023-03-22T11:19:57.254Z,14.20
2023-03-22T11:22:36.757Z,14.21
2023-03-22T11:25:18.045Z,14.17
2023-03-22T11:27:56.382Z,14.26
2023-03-22T11:30:29.949Z,14.36
2023-03-22T11:33:17.001Z,14.51
2023-03-22T11:35:56.455Z,14.63
2023-03-22T11:38:36.532Z,14.71
2023-03-22T11:41:13.144Z,14.70
2023-03-22T11:43:52.756Z,14.74
2023-03-22T11:46:26.787Z,14.96
2023-03-22T11:49:01.195Z,15.01
2023-03-22T11:51:36.101Z,14.94
2023-03-22T11:54:15.917Z,15.03
2023-03-22T11:56:50.615Z,15.11
2023-03-22T11:59:27.858Z,15.16
2023-03-22T12:02:06.917Z,15.21
2023-03-22T12:04:42.853Z,15.24
2023-03-22T12:07:19.509Z,15.48
2023-03-22T12:09:58.977Z,15.64
2023-03-22T12:12:36.121Z,15.62
2023-03-22T12:15:14.140Z,15.60
2023-03-22T12:17:50.326Z,15.63
2023-03-22T12:20:32.845Z,15.64
2023-03-22T12:23:10.578Z,15.64
2023-03-22T12:25:46.308Z,15.58
2023-03-22T12:28:22.228Z,15.62
2023-03-22T12:30:58.569Z,15.64
2023-03-22T12:33:33.963Z,15.56
2023-03-22T12:36:09.275Z,15.56
2023-03-22T12:38:48.278Z,15.55
2023-03-22T12:41:26.586Z,15.59
2023-03-22T12:44:01.511Z,15.55
2023-03-22T12:46:37.492Z,15.50
2023-03-22T12:49:19.474Z,15.47
2023-03-22T12:51:53.353Z,15.43
2023-03-22T12:54:28.225Z,15.36
2023-03-22T12:57:01.207Z,15.42
2023-03-22T12:59:34.524Z,15.45
2023-03-22T13:02:16.992Z,15.39
2023-03-22T13:04:58.234Z,15.40
2023-03-22T13:07:56.451Z,15.42
2023-03-22T13:10:51.290Z,15.43
2023-03-22T13:13:48.021Z,15.51
2023-03-22T13:16:54.120Z,15.53
2023-03-22T13:19:54.431Z,15.59
2023-03-22T13:22:30.560Z,15.66
2023-03-22T13:25:29.147Z,15.82
2023-03-22T13:28:03.498Z,15.94
2023-03-22T13:30:51.124Z,15.95
2023-03-22T13:33:30.002Z,15.93
2023-03-22T13:36:07.491Z,15.88
2023-03-22T13:38:43.117Z,15.83
2023-03-22T13:41:23.079Z,15.92
2023-03-22T13:43:57.678Z,16.05
2023-03-22T13:46:48.002Z,16.18
2023-03-22T13:49:32.352Z,16.28
2023-03-22T13:52:08.343Z,16.33
2023-03-22T13:54:45.185Z,16.35
2023-03-22T13:57:48.004Z,16.29
2023-03-22T14:00:48.071Z,16.21
2023-03-22T14:03:29.634Z,16.25
2023-03-22T14:06:19.842Z,16.27
2023-03-22T14:08:55.517Z,16.28
2023-03-22T14:11:32.669Z,16.40
2023-03-22T14:14:09.531Z,16.50
2023-03-22T14:16:47.654Z,16.59
2023-03-22T14:19:24.990Z,16.62
